Time;durP1;ratioP1;P1;durP2;ratioP2;P2;SDS_P1;SDS_P2;PMS_P1;PMS_P2;Temp;Humidity;BMP_temperature;BMP_pressure;BME280_temperature;BME280_humidity;BME280_pressure;Samples;Min_cycle;Max_cycle;Signal;HPM_P1;HPM_P2
2023/04/04 00:00:01;;;;;;;6.53;1.83;;;;;-3.20;94578.00;;;;7398844;19;20525;-85
2023/04/04 00:02:35;;;;;;;5.77;1.57;;;;;-3.20;94579.00;;;;7397415;19;20171;-85
2023/04/04 00:05:07;;;;;;;2.43;1.50;;;;;-3.20;94572.00;;;;7400258;19;20603;-85
2023/04/04 00:07:51;;;;;;;4.07;1.87;;;;;-3.30;94565.00;;;;7395852;19;20198;-85
2023/04/04 00:10:32;;;;;;;4.73;1.70;;;;;-3.30;94572.00;;;;7394412;19;20148;-85
2023/04/04 00:13:07;;;;;;;5.90;2.47;;;;;-3.30;94570.00;;;;7396956;19;20142;-86
2023/04/04 00:15:36;;;;;;;1.70;1.50;;;;;-3.40;94569.00;;;;7398602;19;20156;-85
2023/04/04 00:18:10;;;;;;;3.03;1.77;;;;;-3.40;94564.00;;;;7396712;19;20485;-85
2023/04/04 00:20:44;;;;;;;2.90;1.60;;;;;-3.40;94558.00;;;;7397827;19;20133;-85
2023/04/04 00:23:19;;;;;;;3.27;2.27;;;;;-3.40;94565.00;;;;7398627;19;20132;-84
2023/04/04 00:25:53;;;;;;;4.17;1.87;;;;;-3.50;94574.00;;;;7388976;19;20613;-86
2023/04/04 00:28:27;;;;;;;2.20;1.60;;;;;-3.50;94574.00;;;;7397307;19;20154;-85
2023/04/04 00:30:55;;;;;;;3.60;1.80;;;;;-3.60;94566.00;;;;7398423;19;20119;-85
2023/04/04 00:33:29;;;;;;;5.27;1.80;;;;;-3.60;94555.00;;;;7396858;19;20600;-86
2023/04/04 00:35:57;;;;;;;1.70;1.43;;;;;-3.70;94565.00;;;;7398130;19;20161;-85
2023/04/04 00:38:31;;;;;;;1.67;1.53;;;;;-3.80;94568.00;;;;7398351;19;20150;-85
2023/04/04 00:40:59;;;;;;;2.90;1.80;;;;;-3.80;94556.00;;;;7398442;19;20164;-85
2023/04/04 00:43:34;;;;;;;3.53;2.00;;;;;-3.80;94557.00;;;;7400791;19;20588;-85
2023/04/04 00:46:02;;;;;;;4.30;1.77;;;;;-3.90;94553.00;;;;7398506;19;20183;-85
2023/04/04 00:48:38;;;;;;;2.27;1.73;;;;;-3.90;94546.00;;;;7398025;19;20630;-86
2023/04/04 00:51:11;;;;;;;3.10;1.87;;;;;-4.00;94544.00;;;;7397501;19;20151;-85
2023/04/04 00:53:47;;;;;;;4.27;2.07;;;;;-3.90;94548.00;;;;7397228;19;20154;-84
2023/04/04 00:56:22;;;;;;;1.70;1.60;;;;;-3.90;94552.00;;;;7398076;19;20177;-85
2023/04/04 00:58:50;;;;;;;5.03;2.10;;;;;-4.10;94553.00;;;;7397786;19;20602;-85
2023/04/04 01:01:25;;;;;;;2.50;1.80;;;;;-4.10;94544.00;;;;7397064;19;20166;-85
2023/04/04 01:03:53;;;;;;;4.20;2.07;;;;;-4.20;94549.00;;;;7397288;19;20158;-85
2023/04/04 01:06:29;;;;;;;5.47;2.27;;;;;-4.00;94542.00;;;;7396491;19;20205;-85
2023/04/04 01:09:10;;;;;;;3.50;2.30;;;;;-4.10;94535.00;;;;7396929;19;20149;-85
2023/04/04 01:11:38;;;;;;;2.80;2.07;;;;;-4.10;94544.00;;;;7396275;19;20164;-85
2023/04/04 01:14:13;;;;;;;3.33;1.90;;;;;-4.20;94538.00;;;;7395665;19;20506;-85
2023/04/04 01:16:42;;;;;;;5.13;2.30;;;;;-4.30;94533.00;;;;7399640;19;20147;-86
2023/04/04 01:19:27;;;;;;;5.40;2.43;;;;;-4.30;94533.00;;;;7397598;19;20148;-85
2023/04/04 01:21:57;;;;;;;4.07;2.10;;;;;-4.30;94534.00;;;;7398994;19;20481;-85
2023/04/04 01:24:37;;;;;;;4.37;2.63;;;;;-4.30;94528.00;;;;7397327;19;20643;-86
2023/04/04 01:27:10;;;;;;;2.57;2.00;;;;;-4.40;94530.00;;;;7405472;19;20127;-86
2023/04/04 01:29:44;;;;;;;3.80;2.43;;;;;-4.40;94533.00;;;;7407319;19;20598;-86
2023/04/04 01:32:28;;;;;;;3.57;2.10;;;;;-4.40;94529.00;;;;7403300;19;20610;-85
2023/04/04 01:35:34;;;;;;;4.10;2.33;;;;;-4.20;94530.00;;;;7401520;19;20161;-86
2023/04/04 01:38:33;;;;;;;3.97;2.37;;;;;-4.40;94517.00;;;;7404140;19;20539;-85
2023/04/04 01:41:08;;;;;;;3.13;2.43;;;;;-4.50;94520.00;;;;7403130;19;20150;-85
2023/04/04 01:43:46;;;;;;;5.03;2.40;;;;;-4.50;94524.00;;;;7404173;19;20135;-86
2023/04/04 01:46:16;;;;;;;5.67;2.50;;;;;-4.50;94516.00;;;;7406141;19;20140;-86
2023/04/04 01:48:51;;;;;;;3.23;2.30;;;;;-4.50;94517.00;;;;7404085;19;20629;-86
2023/04/04 01:51:25;;;;;;;4.57;2.40;;;;;-4.50;94519.00;;;;7404584;19;20621;-86
2023/04/04 01:53:59;;;;;;;4.50;2.50;;;;;-4.40;94515.00;;;;7402139;19;20127;-85
2023/04/04 01:56:28;;;;;;;5.70;2.60;;;;;-4.40;94508.00;;;;7402814;19;20157;-86
2023/04/04 01:59:02;;;;;;;5.27;2.57;;;;;-4.50;94506.00;;;;7403556;19;20143;-85
2023/04/04 02:01:37;;;;;;;6.33;2.57;;;;;-4.60;94502.00;;;;7402042;19;20204;-86
2023/04/04 02:04:13;;;;;;;4.27;2.67;;;;;-4.70;94505.00;;;;7403163;19;20154;-85
2023/04/04 02:06:47;;;;;;;4.17;2.50;;;;;-4.60;94512.00;;;;7402080;19;20245;-86
2023/04/04 02:09:21;;;;;;;4.87;2.17;;;;;-4.70;94508.00;;;;7403829;19;20130;-86
2023/04/04 02:11:49;;;;;;;3.20;2.23;;;;;-4.70;94510.00;;;;7403127;19;20155;-86
2023/04/04 02:14:24;;;;;;;5.23;2.37;;;;;-4.70;94511.00;;;;7402024;19;20124;-87
2023/04/04 02:16:52;;;;;;;4.33;2.60;;;;;-4.70;94505.00;;;;7402954;19;20201;-84
2023/04/04 02:19:26;;;;;;;3.10;2.37;;;;;-4.80;94517.00;;;;7402593;19;20611;-86
2023/04/04 02:21:55;;;;;;;4.03;2.60;;;;;-5.00;94525.00;;;;7402679;19;20149;-86
2023/04/04 02:24:30;;;;;;;6.07;2.43;;;;;-5.00;94517.00;;;;7402028;19;20135;-86
2023/04/04 02:27:03;;;;;;;5.13;2.27;;;;;-5.10;94517.00;;;;7402568;19;20477;-85
2023/04/04 02:29:37;;;;;;;4.53;2.30;;;;;-5.00;94512.00;;;;7399640;19;20156;-86
2023/04/04 02:32:05;;;;;;;5.43;2.37;;;;;-5.00;94507.00;;;;7403578;19;20479;-86
2023/04/04 02:34:39;;;;;;;5.73;2.40;;;;;-5.10;94515.00;;;;7400015;19;20207;-86
2023/04/04 02:37:07;;;;;;;4.77;2.60;;;;;-5.20;94500.00;;;;7401511;19;20211;-86
2023/04/04 02:39:35;;;;;;;6.37;2.73;;;;;-5.20;94506.00;;;;7402149;19;20644;-85
2023/04/04 02:42:10;;;;;;;3.67;2.20;;;;;-5.10;94497.00;;;;7401626;19;20149;-85
2023/04/04 02:44:37;;;;;;;9.27;3.20;;;;;-5.00;94507.00;;;;7401363;19;20647;-86
2023/04/04 02:47:11;;;;;;;4.77;2.63;;;;;-4.90;94507.00;;;;7401916;19;20152;-87
2023/04/04 02:49:46;;;;;;;5.97;2.70;;;;;-5.10;94509.00;;;;7402074;19;20158;-86
2023/04/04 02:52:13;;;;;;;3.43;2.87;;;;;-5.10;94497.00;;;;7401905;19;20134;-86
2023/04/04 02:54:48;;;;;;;5.93;2.70;;;;;-5.10;94503.00;;;;7400737;19;20607;-86
2023/04/04 02:57:22;;;;;;;4.40;2.90;;;;;-5.00;94495.00;;;;7400717;19;20133;-86
2023/04/04 02:59:56;;;;;;;6.60;2.80;;;;;-5.10;94496.00;;;;7403206;19;20593;-86
2023/04/04 03:02:24;;;;;;;3.37;2.60;;;;;-5.10;94491.00;;;;7398620;19;20206;-86
2023/04/04 03:04:52;;;;;;;8.10;2.83;;;;;-5.00;94493.00;;;;7401642;19;20161;-87
2023/04/04 03:07:34;;;;;;;6.17;2.63;;;;;-5.10;94485.00;;;;7399352;19;20152;-86
2023/04/04 03:10:15;;;;;;;5.37;2.63;;;;;-5.20;94486.00;;;;7401908;19;20693;-87
2023/04/04 03:12:50;;;;;;;4.57;2.77;;;;;-5.20;94488.00;;;;7401389;19;20572;-87
2023/04/04 03:15:18;;;;;;;3.70;2.63;;;;;-5.40;94488.00;;;;7402012;19;20164;-85
2023/04/04 03:18:00;;;;;;;8.43;3.10;;;;;-5.30;94482.00;;;;7401729;19;20511;-86
2023/04/04 03:20:27;;;;;;;3.50;2.53;;;;;-5.30;94486.00;;;;7400512;19;20145;-86
2023/04/04 03:23:02;;;;;;;6.23;3.10;;;;;-5.30;94484.00;;;;7400072;19;20488;-86
2023/04/04 03:25:29;;;;;;;7.07;3.10;;;;;-5.40;94484.00;;;;7399135;19;20600;-86
2023/04/04 03:28:10;;;;;;;4.03;3.10;;;;;-5.30;94486.00;;;;7400779;19;20618;-86
2023/04/04 03:30:38;;;;;;;3.67;2.73;;;;;-5.40;94484.00;;;;7400148;19;20642;-87
2023/04/04 03:33:12;;;;;;;9.17;3.30;;;;;-5.40;94487.00;;;;7400494;19;20618;-84
2023/04/04 03:35:46;;;;;;;5.90;2.90;;;;;-5.50;94487.00;;;;7397554;19;20490;-87
2023/04/04 03:38:14;;;;;;;3.93;2.70;;;;;-5.40;94477.00;;;;7401383;19;20193;-86
2023/04/04 03:40:48;;;;;;;4.53;3.13;;;;;-5.50;94477.00;;;;7400296;19;20550;-87
2023/04/04 03:43:22;;;;;;;5.30;3.00;;;;;-5.50;94485.00;;;;7399662;19;20117;-87
2023/04/04 03:46:00;;;;;;;4.97;2.90;;;;;-5.40;94485.00;;;;7401077;19;20125;-86
2023/04/04 03:48:29;;;;;;;3.97;3.20;;;;;-5.40;94479.00;;;;7399403;19;20143;-86
2023/04/04 03:51:03;;;;;;;6.67;2.90;;;;;-5.50;94478.00;;;;7399119;19;20141;-86
2023/04/04 03:53:37;;;;;;;4.07;2.77;;;;;-5.60;94477.00;;;;7399128;19;20149;-87
2023/04/04 03:56:11;;;;;;;5.07;3.30;;;;;-5.50;94476.00;;;;7399461;19;20180;-86
2023/04/04 03:58:39;;;;;;;5.83;2.97;;;;;-5.50;94479.00;;;;7398618;19;20256;-86
2023/04/04 04:01:13;;;;;;;5.77;2.73;;;;;-5.60;94485.00;;;;7398204;19;20179;-87
2023/04/04 04:03:41;;;;;;;4.17;3.30;;;;;-5.60;94483.00;;;;7399470;19;20148;-85
2023/04/04 04:06:29;;;;;;;4.60;2.80;;;;;-5.50;94484.00;;;;7399302;19;20525;-86
2023/04/04 04:09:03;;;;;;;3.67;2.87;;;;;-5.40;94488.00;;;;7398723;19;20615;-84
2023/04/04 04:11:37;;;;;;;7.80;3.33;;;;;-5.50;94484.00;;;;7395612;19;20164;-85
2023/04/04 04:14:05;;;;;;;4.77;2.83;;;;;-5.70;94472.00;;;;7398169;19;20204;-85
2023/04/04 04:16:40;;;;;;;4.93;3.10;;;;;-5.70;94481.00;;;;7398461;19;20491;-85
2023/04/04 04:19:08;;;;;;;3.60;2.80;;;;;-5.60;94482.00;;;;7397656;19;20204;-85
2023/04/04 04:21:42;;;;;;;4.60;3.30;;;;;-5.50;94483.00;;;;7397927;19;20125;-84
2023/04/04 04:24:10;;;;;;;11.87;3.40;;;;;-5.40;94479.00;;;;7394128;19;20140;-85
2023/04/04 04:26:45;;;;;;;6.17;3.13;;;;;-5.60;94485.00;;;;7397888;19;20641;-85
2023/04/04 04:29:12;;;;;;;4.93;3.10;;;;;-5.70;94481.00;;;;7397543;19;20611;-86
2023/04/04 04:31:46;;;;;;;4.10;3.03;;;;;-5.80;94490.00;;;;7398755;19;20151;-85
2023/04/04 04:34:14;;;;;;;8.67;3.60;;;;;-5.80;94486.00;;;;7394263;19;20156;-85
2023/04/04 04:36:48;;;;;;;4.17;3.40;;;;;-5.80;94485.00;;;;7397993;19;20587;-85
2023/04/04 04:39:16;;;;;;;3.27;2.90;;;;;-5.80;94486.00;;;;7397490;19;20160;-85
2023/04/04 04:41:50;;;;;;;4.03;3.37;;;;;-5.60;94475.00;;;;7399222;19;20136;-84
2023/04/04 04:44:18;;;;;;;9.33;3.60;;;;;-5.60;94489.00;;;;7394363;19;20153;-85
2023/04/04 04:46:52;;;;;;;6.43;3.43;;;;;-5.70;94488.00;;;;7393915;19;20140;-85
2023/04/04 04:49:26;;;;;;;5.33;3.40;;;;;-5.70;94484.00;;;;7395544;19;20129;-85
2023/04/04 04:51:54;;;;;;;4.20;3.30;;;;;-5.80;94482.00;;;;7392971;19;20125;-85
2023/04/04 04:54:28;;;;;;;11.13;4.00;;;;;-5.60;94476.00;;;;7388820;19;20178;-85
2023/04/04 04:56:56;;;;;;;5.00;3.40;;;;;-5.80;94474.00;;;;7390827;19;21037;-85
2023/04/04 04:59:32;;;;;;;9.40;3.63;;;;;-5.80;94481.00;;;;7391516;19;20132;-85
2023/04/04 05:02:06;;;;;;;6.27;3.00;;;;;-5.80;94474.00;;;;7397289;19;20149;-85
2023/04/04 05:04:43;;;;;;;6.77;3.97;;;;;-5.70;94475.00;;;;7401077;19;20163;-86
2023/04/04 05:07:24;;;;;;;7.17;3.70;;;;;-5.80;94484.00;;;;7400998;19;20152;-86
2023/04/04 05:09:51;;;;;;;7.17;3.70;;;;;-5.60;94487.00;;;;7397876;19;20527;-86
2023/04/04 05:12:26;;;;;;;9.80;3.77;;;;;-5.60;94481.00;;;;7402784;19;20142;-85
2023/04/04 05:14:59;;;;;;;4.03;3.27;;;;;-5.50;94479.00;;;;7404134;19;20148;-84
2023/04/04 05:17:35;;;;;;;7.10;3.93;;;;;-5.40;94491.00;;;;7404520;19;20146;-85
2023/04/04 05:20:03;;;;;;;8.73;3.80;;;;;-5.40;94482.00;;;;7405276;19;20603;-84
2023/04/04 05:22:52;;;;;;;7.47;4.03;;;;;-5.30;94487.00;;;;7406211;19;20464;-85
2023/04/04 05:25:26;;;;;;;6.63;3.80;;;;;-5.30;94490.00;;;;7401764;19;20168;-85
2023/04/04 05:28:02;;;;;;;12.57;3.67;;;;;-5.20;94496.00;;;;7405812;19;20154;-84
2023/04/04 05:30:38;;;;;;;7.23;4.10;;;;;-5.10;94498.00;;;;7405095;19;20505;-85
2023/04/04 05:33:06;;;;;;;8.10;3.70;;;;;-5.00;94497.00;;;;7400818;19;20160;-86
2023/04/04 05:35:34;;;;;;;7.93;4.00;;;;;-4.70;94499.00;;;;7403133;19;20144;-85
2023/04/04 05:38:09;;;;;;;6.87;4.00;;;;;-4.70;94497.00;;;;7404581;19;20129;-85
2023/04/04 05:40:36;;;;;;;9.27;3.70;;;;;-4.70;94500.00;;;;7406646;19;20129;-85
2023/04/04 05:43:11;;;;;;;4.73;3.93;;;;;-4.60;94496.00;;;;7404994;19;20140;-84
2023/04/04 05:45:45;;;;;;;9.13;3.97;;;;;-4.30;94498.00;;;;7403595;19;20159;-86
2023/04/04 05:48:20;;;;;;;5.50;3.67;;;;;-4.20;94506.00;;;;7392450;19;20145;-84
2023/04/04 05:50:47;;;;;;;6.57;3.50;;;;;-4.20;94495.00;;;;7402381;19;20600;-84
2023/04/04 05:53:21;;;;;;;4.67;3.47;;;;;-4.00;94510.00;;;;7402384;19;20149;-85
2023/04/04 05:55:52;;;;;;;5.73;3.43;;;;;-3.90;94511.00;;;;7400999;19;20164;-85
2023/04/04 05:58:26;;;;;;;5.00;3.73;;;;;-3.80;94502.00;;;;7402578;19;20150;-85
2023/04/04 06:00:54;;;;;;;4.80;3.20;;;;;-3.70;94514.00;;;;7401681;19;20173;-85
2023/04/04 06:03:28;;;;;;;5.03;3.70;;;;;-3.50;94510.00;;;;7399392;19;20138;-85
2023/04/04 06:06:03;;;;;;;5.93;3.43;;;;;-3.50;94495.00;;;;7403567;19;20191;-85
2023/04/04 06:08:44;;;;;;;6.77;3.60;;;;;-3.30;94506.00;;;;7399424;19;20636;-85
2023/04/04 06:15:00;;;;;;;7.27;3.70;;;;;-3.10;94509.00;;;;7407904;19;20745;-85
2023/04/04 06:17:36;;;;;;;5.77;3.23;;;;;-3.00;94498.00;;;;7408626;19;20144;-85
2023/04/04 06:20:04;;;;;;;6.83;3.37;;;;;-3.10;94509.00;;;;7407449;19;20151;-85
2023/04/04 06:22:40;;;;;;;5.37;3.30;;;;;-2.80;94508.00;;;;7406228;19;20151;-85
2023/04/04 06:25:09;;;;;;;5.93;3.90;;;;;-2.80;94506.00;;;;7408172;19;20162;-85
2023/04/04 06:27:43;;;;;;;6.70;3.47;;;;;-2.60;94504.00;;;;7405630;19;20154;-84
2023/04/04 06:30:13;;;;;;;4.43;3.07;;;;;-2.40;94498.00;;;;7406524;19;20128;-84
2023/04/04 06:32:41;;;;;;;9.57;3.30;;;;;-2.10;94506.00;;;;7407022;19;20155;-84
2023/04/04 06:35:16;;;;;;;4.33;3.10;;;;;-1.70;94498.00;;;;7404812;19;20168;-84
2023/04/04 06:37:56;;;;;;;3.63;2.77;;;;;-1.20;94506.00;;;;7404840;19;20136;-84
2023/04/04 06:40:33;;;;;;;5.47;3.30;;;;;-0.90;94504.00;;;;7404544;19;20153;-83
2023/04/04 06:43:01;;;;;;;4.50;3.13;;;;;-0.90;94501.00;;;;7402169;19;20172;-84
2023/04/04 06:45:34;;;;;;;6.40;2.97;;;;;-0.60;94496.00;;;;7403376;19;20160;-84
2023/04/04 06:48:02;;;;;;;5.30;3.50;;;;;-0.60;94493.00;;;;7406345;19;20585;-84
2023/04/04 06:50:37;;;;;;;6.63;2.97;;;;;-0.50;94492.00;;;;7404834;19;20166;-83
2023/04/04 06:53:11;;;;;;;4.63;3.03;;;;;-0.50;94490.00;;;;7403492;19;20675;-83
2023/04/04 06:55:39;;;;;;;7.60;2.73;;;;;-0.40;94496.00;;;;7401727;19;20141;-83
2023/04/04 06:58:13;;;;;;;6.27;3.07;;;;;-0.30;94492.00;;;;7404073;19;20163;-83
2023/04/04 07:00:48;;;;;;;4.50;2.90;;;;;-0.10;94502.00;;;;7401968;19;20250;-83
2023/04/04 07:03:16;;;;;;;5.37;3.00;;;;;0.10;94494.00;;;;7400398;19;20152;-84
2023/04/04 07:05:44;;;;;;;6.70;3.00;;;;;0.30;94501.00;;;;7401926;19;20532;-83
2023/04/04 07:08:25;;;;;;;3.73;2.60;;;;;0.40;94501.00;;;;7399670;19;20161;-82
2023/04/04 07:10:55;;;;;;;3.43;2.60;;;;;0.70;94505.00;;;;7395926;19;20548;-82
2023/04/04 07:13:30;;;;;;;5.60;3.07;;;;;0.50;94508.00;;;;7399991;19;20476;-82
2023/04/04 07:15:57;;;;;;;4.23;2.70;;;;;0.90;94505.00;;;;7400161;19;20592;-82
2023/04/04 07:18:26;;;;;;;3.77;2.73;;;;;0.70;94501.00;;;;7398868;19;20511;-81
2023/04/04 07:21:01;;;;;;;4.97;2.53;;;;;0.80;94500.00;;;;7398907;19;20157;-82
2023/04/04 07:23:35;;;;;;;4.03;2.60;;;;;1.10;94509.00;;;;7397687;19;20139;-82
2023/04/04 07:26:09;;;;;;;4.77;2.77;;;;;1.70;94510.00;;;;7399165;19;20133;-81
2023/04/04 07:28:43;;;;;;;3.50;2.50;;;;;1.10;94499.00;;;;7398006;19;20148;-83
2023/04/04 07:31:18;;;;;;;7.10;3.13;;;;;1.60;94506.00;;;;7400223;19;20139;-82
2023/04/04 07:33:55;;;;;;;5.17;2.53;;;;;1.60;94494.00;;;;7400309;19;20148;-83
2023/04/04 07:36:32;;;;;;;7.93;2.70;;;;;1.60;94496.00;;;;7397685;19;20157;-83
2023/04/04 07:39:07;;;;;;;6.43;2.70;;;;;2.00;94504.00;;;;7399941;19;20511;-81
2023/04/04 07:41:41;;;;;;;4.80;2.50;;;;;2.00;94496.00;;;;7398232;19;20148;-82
2023/04/04 07:44:09;;;;;;;4.93;2.37;;;;;1.90;94502.00;;;;7399395;19;20500;-82
2023/04/04 07:46:43;;;;;;;5.33;2.63;;;;;2.40;94495.00;;;;7399780;19;20128;-80
2023/04/04 07:49:14;;;;;;;5.67;2.93;;;;;2.60;94497.00;;;;7398874;19;20164;-81
2023/04/04 07:51:48;;;;;;;4.10;2.30;;;;;1.80;94503.00;;;;7398550;19;20133;-81
2023/04/04 07:54:23;;;;;;;7.47;2.80;;;;;2.10;94499.00;;;;7399837;19;20543;-81
2023/04/04 07:56:53;;;;;;;5.20;2.50;;;;;2.30;94495.00;;;;7398673;19;20137;-81
2023/04/04 07:59:28;;;;;;;5.23;2.53;;;;;2.80;94490.00;;;;7398945;19;20638;-81
2023/04/04 08:01:56;;;;;;;3.73;2.73;;;;;2.60;94497.00;;;;7397998;19;20173;-81
2023/04/04 08:04:31;;;;;;;4.57;2.50;;;;;2.90;94503.00;;;;7398971;19;20160;-82
2023/04/04 08:07:05;;;;;;;4.37;2.57;;;;;3.60;94496.00;;;;7399091;19;20125;-81
2023/04/04 08:09:47;;;;;;;8.60;3.03;;;;;4.10;94495.00;;;;7397229;19;20495;-82
2023/04/04 08:12:15;;;;;;;3.20;2.40;;;;;4.30;94492.00;;;;7398169;19;20141;-82
2023/04/04 08:14:53;;;;;;;6.17;2.57;;;;;4.30;94503.00;;;;7399579;19;20172;-81
2023/04/04 08:17:30;;;;;;;4.13;2.40;;;;;3.90;94490.00;;;;7398633;19;20484;-82
2023/04/04 08:20:04;;;;;;;3.57;2.40;;;;;3.90;94490.00;;;;7399513;19;20153;-82
2023/04/04 08:22:33;;;;;;;3.70;2.40;;;;;4.20;94497.00;;;;7398230;19;20642;-83
2023/04/04 08:25:02;;;;;;;5.00;2.70;;;;;4.40;94498.00;;;;7399376;19;20588;-82
2023/04/04 08:27:43;;;;;;;5.63;2.90;;;;;5.00;94492.00;;;;7390955;19;20149;-82
2023/04/04 08:30:13;;;;;;;4.47;2.70;;;;;5.00;94487.00;;;;7397668;19;20162;-82
2023/04/04 08:32:47;;;;;;;7.33;2.60;;;;;5.00;94492.00;;;;7395105;19;20608;-82
2023/04/04 08:35:15;;;;;;;4.60;2.60;;;;;4.70;94488.00;;;;7397052;19;20148;-83
2023/04/04 08:37:46;;;;;;;5.03;2.63;;;;;5.50;94492.00;;;;7397157;19;20777;-82
2023/04/04 08:40:21;;;;;;;6.33;2.40;;;;;6.20;94495.00;;;;7396019;19;20231;-84
2023/04/04 08:43:03;;;;;;;5.67;2.77;;;;;5.40;94490.00;;;;7396522;19;20128;-83
2023/04/04 08:45:40;;;;;;;4.27;2.77;;;;;5.30;94501.00;;;;7395332;19;20136;-82
2023/04/04 08:48:14;;;;;;;3.63;2.80;;;;;5.80;94515.00;;;;7400317;19;20228;-83
2023/04/04 08:51:07;;;;;;;3.90;2.80;;;;;5.90;94504.00;;;;7396200;19;20174;-83
2023/04/04 08:53:36;;;;;;;6.87;2.73;;;;;6.20;94503.00;;;;7400160;19;20129;-84
2023/04/04 08:56:12;;;;;;;4.67;2.70;;;;;6.40;94528.00;;;;7398391;19;20136;-83
2023/04/04 08:58:40;;;;;;;4.27;2.43;;;;;5.80;94493.00;;;;7400056;19;20125;-82
2023/04/04 09:01:16;;;;;;;3.80;2.60;;;;;6.30;94510.00;;;;7397407;19;20160;-83
2023/04/04 09:03:57;;;;;;;4.60;2.33;;;;;6.30;94514.00;;;;7399080;19;20196;-83
2023/04/04 09:06:35;;;;;;;5.30;2.20;;;;;6.70;94514.00;;;;7398670;19;20632;-81
2023/04/04 09:09:23;;;;;;;4.37;2.40;;;;;7.00;94513.00;;;;7400680;19;20128;-85
2023/04/04 09:12:00;;;;;;;3.83;2.20;;;;;6.40;94516.00;;;;7400714;19;20144;-84
2023/04/04 09:14:38;;;;;;;5.57;2.60;;;;;7.00;94515.00;;;;7402112;19;20155;-89
2023/04/04 09:17:14;;;;;;;4.87;2.70;;;;;6.60;94515.00;;;;7406735;19;20148;-91
2023/04/04 09:19:48;;;;;;;2.73;2.30;;;;;6.60;94518.00;;;;7405732;19;20462;-84
2023/04/04 09:22:16;;;;;;;3.93;2.53;;;;;7.60;94507.00;;;;7398066;19;20149;-82
2023/04/04 09:24:51;;;;;;;3.63;2.20;;;;;7.90;94502.00;;;;7397747;19;20528;-83
2023/04/04 09:27:26;;;;;;;4.93;2.67;;;;;6.90;94515.00;;;;7399984;19;20147;-82
2023/04/04 09:30:01;;;;;;;3.63;2.40;;;;;6.70;94510.00;;;;7399188;19;20139;-83
2023/04/04 09:32:38;;;;;;;3.43;2.57;;;;;6.50;94504.00;;;;7400614;19;20148;-82
2023/04/04 09:35:14;;;;;;;3.13;2.37;;;;;6.80;94511.00;;;;7397518;19;20196;-83
2023/04/04 09:37:43;;;;;;;6.37;2.53;;;;;7.20;94510.00;;;;7395330;19;20152;-82
2023/04/04 09:40:22;;;;;;;3.80;2.37;;;;;7.40;94516.00;;;;7398279;19;20147;-82
2023/04/04 09:42:52;;;;;;;5.33;2.60;;;;;7.10;94508.00;;;;7396784;19;20470;-84
2023/04/04 09:45:30;;;;;;;6.73;2.60;;;;;7.10;94517.00;;;;7395666;19;20144;-82
2023/04/04 09:48:12;;;;;;;4.20;2.73;;;;;8.50;94507.00;;;;7406633;19;20160;-82
2023/04/04 09:50:47;;;;;;;5.40;2.37;;;;;8.00;94500.00;;;;7404497;19;20144;-82
2023/04/04 09:53:18;;;;;;;4.73;2.40;;;;;8.10;94509.00;;;;7401884;19;20129;-82
2023/04/04 09:55:54;;;;;;;4.90;2.42;;;;;8.10;94512.00;;;;7378786;19;20476;-82
2023/04/04 09:58:26;;;;;;;4.97;2.63;;;;;6.70;94522.00;;;;7388613;19;20144;-84
2023/04/04 10:01:07;;;;;;;4.33;2.73;;;;;7.50;94522.00;;;;7390687;19;20152;-84
2023/04/04 10:03:39;;;;;;;5.50;2.53;;;;;8.20;94518.00;;;;7387321;19;20152;-84
2023/04/04 10:06:17;;;;;;;4.23;2.37;;;;;8.50;94521.00;;;;7393320;19;20457;-85
2023/04/04 10:08:58;;;;;;;4.30;2.70;;;;;8.30;94512.00;;;;7389317;19;20183;-84
2023/04/04 10:11:34;;;;;;;3.43;2.23;;;;;7.80;94517.00;;;;7394006;19;20147;-85
2023/04/04 10:14:09;;;;;;;4.33;2.67;;;;;8.40;94513.00;;;;7394274;19;20133;-84
2023/04/04 10:16:37;;;;;;;3.30;2.30;;;;;8.00;94511.00;;;;7391182;19;20161;-83
2023/04/04 10:19:14;;;;;;;5.65;2.65;;;;;8.10;94512.00;;;;7390238;19;20778;-83
2023/04/04 10:21:48;;;;;;;3.33;2.10;;;;;7.10;94509.00;;;;7391110;19;20567;-82
2023/04/04 10:24:23;;;;;;;3.33;2.10;;;;;7.40;94505.00;;;;7390514;19;20149;-83
2023/04/04 10:26:54;;;;;;;3.40;2.10;;;;;7.30;94508.00;;;;7390304;19;20172;-83
2023/04/04 10:29:31;;;;;;;3.00;2.17;;;;;8.30;94508.00;;;;7391328;19;20160;-83
2023/04/04 10:32:04;;;;;;;4.05;2.50;;;;;8.60;94517.00;;;;7391814;19;20133;-83
2023/04/04 10:34:54;;;;;;;2.55;2.30;;;;;9.20;94512.00;;;;7391076;19;20484;-84
2023/04/04 10:37:30;;;;;;;3.17;2.30;;;;;8.20;94506.00;;;;7390544;19;20133;-83
2023/04/04 10:40:18;;;;;;;3.88;2.45;;;;;8.90;94513.00;;;;7388807;19;20494;-83
2023/04/04 10:42:49;;;;;;;3.60;2.33;;;;;8.00;94499.00;;;;7390403;19;20159;-83
2023/04/04 10:45:27;;;;;;;4.18;2.20;;;;;8.80;94514.00;;;;7390492;19;20772;-83
2023/04/04 10:48:03;;;;;;;3.53;2.25;;;;;8.30;94512.00;;;;7391747;19;20145;-85
2023/04/04 10:50:39;;;;;;;4.22;2.50;;;7.70;1.00;7.90;94536.00;;;;7388955;19;20159;-83
2023/04/04 10:53:07;;;;;;;2.40;2.17;;;7.80;1.00;8.80;94436.00;;;;7387794;19;20160;-83
2023/04/04 10:55:43;;;;;;;3.50;2.70;;;7.90;1.00;8.90;94505.00;;;;7388134;19;20178;-83
2023/04/04 10:58:12;;;;;;;10.45;3.10;;;8.10;1.00;9.80;94485.00;;;;7384267;19;20160;-83
2023/04/04 11:00:51;;;;;;;3.88;2.33;;;8.20;1.00;10.30;94514.00;;;;7387003;19;20180;-83
2023/04/04 11:03:26;;;;;;;5.95;2.70;;;8.30;1.00;10.60;94437.00;;;;7386307;19;20145;-83
2023/04/04 11:06:02;;;;;;;4.30;2.90;;;8.20;1.00;10.10;94460.00;;;;7389718;19;20121;-84
2023/04/04 11:08:55;;;;;;;7.22;2.80;;;8.30;1.00;10.90;94442.00;;;;7388919;19;20186;-83
2023/04/04 11:11:56;;;;;;;5.43;2.35;;;8.50;1.00;10.70;94471.00;;;;7388840;19;20584;-82
2023/04/04 11:14:28;;;;;;;5.63;2.47;;;9.00;1.00;10.40;94506.00;;;;7388052;19;20164;-83
2023/04/04 11:17:04;;;;;;;4.63;2.50;;;8.80;1.00;11.00;94399.00;;;;7386728;19;20177;-83
2023/04/04 11:19:33;;;;;;;3.50;2.30;;;8.90;1.00;11.00;94415.00;;;;7389228;19;20200;-83
2023/04/04 11:22:07;;;;;;;3.42;2.47;;;9.30;1.00;11.20;94506.00;;;;7386618;19;20145;-83
2023/04/04 11:24:43;;;;;;;4.32;2.50;;;9.70;1.00;11.50;94458.00;;;;7387519;19;20125;-83
2023/04/04 11:27:20;;;;;;;4.05;2.20;;;;;11.40;94501.00;;;;7387261;19;20148;-83
2023/04/04 11:30:11;;;;;;;4.43;2.40;;;;;11.90;94494.00;;;;7389035;19;20588;-83
2023/04/04 11:32:50;;;;;;;6.60;2.78;;;10.40;1.00;12.90;94452.00;;;;7387109;19;20145;-83
2023/04/04 11:35:32;;;;;;;4.32;2.60;;;10.50;1.00;11.80;94487.00;;;;7386441;19;20244;-83
2023/04/04 11:38:15;;;;;;;4.45;2.47;;;10.30;1.00;12.10;94510.00;;;;7387831;19;20157;-83
2023/04/04 11:40:53;;;;;;;5.28;2.85;;;10.00;1.00;11.90;94508.00;;;;7386549;19;20215;-83
2023/04/04 11:43:28;;;;;;;3.50;2.45;;;9.90;1.00;12.20;94503.00;;;;7386060;19;20161;-83
2023/04/04 11:46:07;;;;;;;3.95;2.40;;;9.80;1.00;12.40;94394.00;;;;7388574;19;20133;-84
2023/04/04 11:48:43;;;;;;;6.40;2.55;;;9.70;1.00;12.50;94438.00;;;;7386504;19;20147;-83
2023/04/04 11:51:12;;;;;;;5.38;2.92;;;9.50;1.00;11.90;94482.00;;;;7386167;19;20156;-83
2023/04/04 11:53:46;;;;;;;3.17;2.22;;;9.60;1.00;11.40;94424.00;;;;7385535;19;20172;-83
2023/04/04 11:56:15;;;;;;;3.88;2.40;;;9.90;1.00;11.20;94387.00;;;;7387243;19;20139;-83
2023/04/04 11:58:48;;;;;;;6.35;3.03;;;10.00;1.00;11.40;94420.00;;;;7386482;19;20632;-83
2023/04/04 12:01:39;;;;;;;4.75;2.67;;;10.20;1.00;10.50;94420.00;;;;7388252;19;22900;-82
2023/04/04 12:04:08;;;;;;;4.13;2.80;;;10.20;1.00;10.40;94519.00;;;;7386445;19;20208;-83
2023/04/04 12:06:42;;;;;;;4.88;3.20;;;10.00;1.00;10.00;94415.00;;;;7386715;19;20666;-83
2023/04/04 12:09:25;;;;;;;3.22;2.72;;;10.20;1.00;11.60;94499.00;;;;7385600;19;20175;-83
2023/04/04 12:12:00;;;;;;;3.58;2.67;;;10.30;1.00;11.80;94450.00;;;;7386067;19;20156;-83
2023/04/04 12:14:34;;;;;;;3.50;2.33;;;10.30;1.00;12.60;94494.00;;;;7386994;19;20144;-84
2023/04/04 12:17:13;;;;;;;3.53;2.53;;;10.30;1.00;12.20;94462.00;;;;7385412;19;20140;-84
2023/04/04 12:19:47;;;;;;;5.75;2.70;;;10.50;1.00;12.60;94436.00;;;;7385789;19;20192;-83
2023/04/04 12:22:15;;;;;;;4.43;2.65;;;10.60;1.00;12.10;94454.00;;;;7384703;19;20780;-83
2023/04/04 12:24:42;;;;;;;3.75;2.80;;;10.80;1.00;11.40;94448.00;;;;7387730;19;20567;-85
2023/04/04 12:27:17;;;;;;;3.95;2.42;;;11.00;1.00;12.30;94497.00;;;;7387130;19;20610;-83
2023/04/04 12:29:46;;;;;;;3.33;2.15;;;11.20;1.00;11.90;94407.00;;;;7385734;19;20148;-83
2023/04/04 12:32:21;;;;;;;5.25;2.80;;;11.00;1.00;11.10;94499.00;;;;7384580;19;20626;-82
2023/04/04 12:34:48;;;;;;;4.88;2.92;;;10.70;1.00;11.40;94495.00;;;;7385546;19;20166;-83
2023/04/04 12:37:22;;;;;;;4.88;2.72;;;10.40;1.00;12.00;94360.00;;;;7386858;19;20144;-83
2023/04/04 12:39:57;;;;;;;3.55;2.40;;;10.20;1.00;11.90;94484.00;;;;7389614;19;20155;-84
2023/04/04 12:42:35;;;;;;;3.33;2.42;;;10.10;1.00;12.00;94462.00;;;;7392970;19;20128;-82
2023/04/04 12:45:09;;;;;;;4.38;2.40;;;10.10;1.00;12.00;94471.00;;;;7390490;19;20218;-82